»·PEaware :: AAL2312 KSEA-KSFO

AAL2312 :: KSEA-KSFO

FLIGHT INFORMATION

Flight Status: Arrived
Operator:
American Airlines
More flights by this operator :: More flights under this callsign
Pilot: Matthew M. (8235)
Aircraft: AIRBUS A330-200
(A332)
More flights by this aircraft type
Origin: KSEA Seattle-Tacoma Intl
United States
Destination: KSFO San Francisco Intl
United States
More flights between these airports :: More routes between these airports
Route: HAROB5 FEPOT Q3 FOWND MLBEC BDEGA2
File this flight plan on PilotEdge
Remarks: PBN / A1B1C1D1O1S2 DOF / 170328 REG / N291AY EET / KZOA0051 OPR / AAL
Altitude:
(Current/Filed)
39,000ft
Speed:
(Current/Filed)
447kts
Departed: 28-Mar-17 11:25 AM
Arrived: 28-Mar-17 01:07 PM
Distance/Time
Traveled:
590nm/1:42
Distance/Time
To Go:
Arrived

Flight Plot

Page will automatically refresh every two minutes.


Map Options




Map Legend


Flown Route
Filed Route
Departure Airport
Arrival Airport
Navaid (VOR, NDB)
Fix

Horizontal Profiles

Position Reports

Time Latitude Longitude Heading Altitude Ground
Speed
28-Mar-17 11:03 47.438469 -122.304271 84 377ft 0kts
28-Mar-17 11:04 47.438469 -122.304271 84 377ft 0kts
28-Mar-17 11:05 47.438469 -122.304271 84 377ft 0kts
28-Mar-17 11:06 47.438469 -122.304271 84 377ft 0kts
28-Mar-17 11:07 47.438469 -122.304271 84 377ft 0kts
28-Mar-17 11:08 47.438469 -122.304271 84 377ft 0kts
28-Mar-17 11:09 47.438469 -122.304271 84 377ft 0kts
28-Mar-17 11:10 47.438469 -122.304271 84 377ft 0kts
28-Mar-17 11:11 47.438469 -122.304271 84 377ft 0kts
28-Mar-17 11:12 47.438469 -122.304271 84 377ft 0kts
28-Mar-17 11:13 47.438469 -122.304271 84 377ft 0kts
28-Mar-17 11:14 47.438469 -122.304271 84 377ft 0kts
28-Mar-17 11:15 47.438469 -122.304273 84 377ft 0kts
28-Mar-17 11:16 47.438469 -122.304274 84 377ft 0kts
28-Mar-17 11:17 47.438440 -122.304679 84 377ft 0kts
28-Mar-17 11:18 47.438288 -122.305329 37 376ft 0kts
28-Mar-17 11:19 47.438496 -122.305441 349 377ft 3kts
28-Mar-17 11:20 47.439890 -122.305810 298 381ft 10kts
28-Mar-17 11:21 47.443890 -122.306328 0 393ft 14kts
28-Mar-17 11:22 47.448206 -122.306270 1 409ft 20kts
28-Mar-17 11:23 47.454514 -122.306130 357 435ft 21kts
28-Mar-17 11:24 47.458116 -122.306210 359 444ft 16kts
28-Mar-17 11:25 47.463523 -122.306279 323 417ft 9kts
28-Mar-17 11:26 47.449951 -122.307868 181 416ft 137kts
28-Mar-17 11:27 47.408209 -122.309111 178 2074ft 165kts
28-Mar-17 11:28 47.346015 -122.311323 192 3348ft 262kts
28-Mar-17 11:29 47.312914 -122.398781 257 5951ft 272kts
28-Mar-17 11:30 47.309124 -122.508784 271 7292ft 276kts
28-Mar-17 11:31 47.311797 -122.622032 272 10079ft 290kts
28-Mar-17 11:32 47.315332 -122.753550 267 11892ft 348kts
28-Mar-17 11:33 47.283974 -122.889107 248 14842ft 364kts
28-Mar-17 11:34 47.245221 -123.028137 236 17619ft 379kts
28-Mar-17 11:35 47.163939 -123.127571 217 20173ft 394kts
28-Mar-17 11:36 47.072294 -123.212866 189 22527ft 408kts
28-Mar-17 11:37 46.958440 -123.214260 179 24751ft 422kts
28-Mar-17 11:38 46.841327 -123.210674 178 26796ft 436kts
28-Mar-17 11:39 46.720693 -123.206690 178 28693ft 448kts
28-Mar-17 11:40 46.598991 -123.202672 178 31028ft 442kts
28-Mar-17 11:41 46.478168 -123.198701 178 33025ft 438kts
28-Mar-17 11:42 46.358588 -123.194788 178 34734ft 435kts
28-Mar-17 11:43 46.240485 -123.190941 178 36186ft 432kts
28-Mar-17 11:44 46.121887 -123.187094 178 37345ft 432kts
28-Mar-17 11:45 46.003409 -123.183268 178 38339ft 432kts
28-Mar-17 11:46 45.885419 -123.179474 178 39183ft 431kts
28-Mar-17 11:47 45.783759 -123.176216 178 39267ft 443kts
28-Mar-17 11:48 45.658735 -123.172226 178 39266ft 470kts
28-Mar-17 11:49 45.528448 -123.168087 178 39266ft 477kts
28-Mar-17 11:50 45.398311 -123.163971 178 39299ft 478kts
28-Mar-17 11:51 45.267361 -123.159850 178 39305ft 477kts
28-Mar-17 11:52 45.136808 -123.155759 178 39304ft 477kts
28-Mar-17 11:53 45.007454 -123.151725 178 39303ft 477kts
28-Mar-17 11:54 44.877213 -123.147682 178 39303ft 477kts
28-Mar-17 11:55 44.746259 -123.143615 178 39303ft 477kts
28-Mar-17 11:56 44.615804 -123.139432 178 39344ft 477kts
28-Mar-17 11:57 44.485009 -123.135190 178 39333ft 477kts
28-Mar-17 11:58 44.353916 -123.130489 178 39330ft 477kts
28-Mar-17 11:59 44.223684 -123.125846 178 39341ft 477kts
28-Mar-17 12:00 44.092872 -123.121203 178 39340ft 477kts
28-Mar-17 12:01 43.962142 -123.116583 178 39340ft 477kts
28-Mar-17 12:02 43.832703 -123.112032 178 39339ft 477kts
28-Mar-17 12:03 43.701798 -123.107447 178 39340ft 477kts
28-Mar-17 12:04 43.571714 -123.102910 178 39352ft 477kts
28-Mar-17 12:05 43.440837 -123.098365 178 39350ft 477kts
28-Mar-17 12:06 43.310122 -123.093844 178 39349ft 477kts
28-Mar-17 12:07 43.179526 -123.089348 178 39349ft 477kts
28-Mar-17 12:08 43.048938 -123.084871 178 39349ft 477kts
28-Mar-17 12:09 42.918408 -123.080415 178 39295ft 477kts
28-Mar-17 12:10 42.788618 -123.076007 178 39290ft 477kts
28-Mar-17 12:11 42.658057 -123.071587 178 39285ft 477kts
28-Mar-17 12:12 42.527467 -123.067185 178 39308ft 477kts
28-Mar-17 12:13 42.396289 -123.062914 178 39302ft 477kts
28-Mar-17 12:14 42.287710 -123.059406 178 39304ft 477kts
28-Mar-17 12:15 42.134874 -123.054482 178 39303ft 477kts
28-Mar-17 12:16 42.026075 -123.050991 178 39303ft 477kts
28-Mar-17 12:17 41.873681 -123.046122 178 39268ft 477kts
28-Mar-17 12:18 41.764788 -123.042660 178 39276ft 477kts
28-Mar-17 12:19 41.612159 -123.037822 178 39276ft 477kts
28-Mar-17 12:20 41.503739 -123.034400 178 39276ft 477kts
28-Mar-17 12:21 41.350884 -123.029594 178 39276ft 477kts
28-Mar-17 12:22 41.220065 -123.025657 178 39276ft 477kts
28-Mar-17 12:23 41.110068 -123.022356 178 39276ft 477kts
28-Mar-17 12:24 40.958541 -123.017826 178 39276ft 477kts
28-Mar-17 12:25 40.849156 -123.014572 178 39282ft 477kts
28-Mar-17 12:26 40.698292 -123.010098 178 39285ft 477kts
28-Mar-17 12:27 40.588233 -123.006846 178 39284ft 477kts
28-Mar-17 12:28 40.457076 -123.002985 178 39285ft 477kts
28-Mar-17 12:29 40.305755 -122.998549 178 39285ft 477kts
28-Mar-17 12:30 40.195674 -122.995334 178 39285ft 477kts
28-Mar-17 12:31 40.044196 -122.990928 178 39280ft 477kts
28-Mar-17 12:32 39.934015 -122.987735 178 39280ft 477kts
28-Mar-17 12:33 39.804517 -122.983999 178 39280ft 477kts
28-Mar-17 12:34 39.673230 -122.980222 178 39308ft 477kts
28-Mar-17 12:35 39.542336 -122.976452 178 38855ft 479kts
28-Mar-17 12:36 39.410910 -122.972580 178 37371ft 480kts
28-Mar-17 12:37 39.279108 -122.968705 178 35874ft 484kts
28-Mar-17 12:38 39.145697 -122.964797 178 34349ft 488kts
28-Mar-17 12:39 39.011254 -122.961690 179 32828ft 493kts
28-Mar-17 12:40 38.880017 -122.958125 173 31330ft 499kts
28-Mar-17 12:41 38.749206 -122.921808 167 29558ft 489kts
28-Mar-17 12:42 38.620258 -122.883746 166 27033ft 476kts
28-Mar-17 12:43 38.495086 -122.846883 166 24576ft 462kts
28-Mar-17 12:44 38.373704 -122.811234 166 22366ft 452kts
28-Mar-17 12:45 38.254617 -122.776374 166 19867ft 439kts
28-Mar-17 12:46 38.140853 -122.743311 166 17524ft 410kts
28-Mar-17 12:47 38.035528 -122.712732 166 14824ft 392kts
28-Mar-17 12:48 37.937206 -122.671528 133 11933ft 379kts
28-Mar-17 12:49 37.882789 -122.567628 123 10884ft 337kts
28-Mar-17 12:50 37.836061 -122.477408 122 10141ft 295kts
28-Mar-17 12:51 37.793140 -122.394564 122 8786ft 282kts
28-Mar-17 12:52 37.751355 -122.313751 123 8017ft 279kts
28-Mar-17 12:53 37.709640 -122.232754 123 8018ft 279kts
28-Mar-17 12:54 37.668178 -122.152232 123 8012ft 263kts
28-Mar-17 12:55 37.632247 -122.082444 123 7280ft 233kts
28-Mar-17 12:56 37.597842 -122.015611 123 5961ft 228kts
28-Mar-17 12:57 37.565943 -121.953639 122 5270ft 192kts
28-Mar-17 12:58 37.536880 -121.899161 139 4032ft 189kts
28-Mar-17 12:59 37.505853 -121.929921 264 4027ft 190kts
28-Mar-17 13:00 37.499413 -121.995269 262 4017ft 190kts
28-Mar-17 13:01 37.492934 -122.060303 266 4743ft 192kts
28-Mar-17 13:02 37.513873 -122.120243 297 4245ft 190kts
28-Mar-17 13:03 37.537231 -122.175892 298 3251ft 170kts
28-Mar-17 13:04 37.558373 -122.226042 298 2357ft 164kts
28-Mar-17 13:05 37.578815 -122.274572 298 1502ft 157kts
28-Mar-17 13:06 37.597449 -122.318872 298 718ft 142kts
28-Mar-17 13:07 37.615167 -122.361024 298 16ft 135kts
28-Mar-17 13:08 37.622147 -122.379627 276 34ft 24kts
28-Mar-17 13:09 37.622276 -122.382973 268 34ft 20kts
28-Mar-17 13:10 37.621216 -122.385723 118 36ft 6kts
28-Mar-17 13:11 37.619786 -122.382409 132 36ft 9kts
28-Mar-17 13:12 37.618839 -122.382419 190 36ft 6kts
28-Mar-17 13:13 37.618381 -122.382059 139 36ft 0kts

Navigation Log

Ident Type
Flight plan parsing failed, navigation log unavailable